Time;durP1;ratioP1;P1;durP2;ratioP2;P2;SDS_P1;SDS_P2;PMS_P1;PMS_P2;Temp;Humidity;BMP_temperature;BMP_pressure;BME280_temperature;BME280_humidity;BME280_pressure;Samples;Min_cycle;Max_cycle;Signal;HPM_P1;HPM_P2
2021/08/28 00:02:07;;;;;;;9.80;3.30;;;13.10;97.00;;;;;;5020898;28;20203;-57
2021/08/28 00:04:34;;;;;;;10.80;4.70;;;13.10;97.20;;;;;;5009484;28;20168;-58
2021/08/28 00:07:00;;;;;;;5.50;4.10;;;13.20;97.20;;;;;;5027025;28;20513;-59
2021/08/28 00:09:26;;;;;;;6.03;3.60;;;13.20;97.10;;;;;;5018763;28;20522;-57
2021/08/28 00:11:52;;;;;;;5.37;4.87;;;13.20;97.20;;;;;;5005765;28;20747;-57
2021/08/28 00:14:17;;;;;;;5.10;3.50;;;13.10;97.20;;;;;;5027273;28;20622;-56
2021/08/28 00:16:43;;;;;;;6.03;3.90;;;13.10;97.60;;;;;;5063232;22;20229;-61
2021/08/28 00:19:09;;;;;;;6.40;3.80;;;13.10;97.60;;;;;;5030210;28;20199;-61
2021/08/28 00:21:34;;;;;;;6.27;4.50;;;13.10;97.80;;;;;;5030765;28;20266;-61
2021/08/28 00:24:01;;;;;;;6.57;4.67;;;13.10;97.90;;;;;;5045328;28;20322;-60
2021/08/28 00:26:28;;;;;;;4.20;3.70;;;13.10;98.00;;;;;;5043125;28;20222;-58
2021/08/28 00:28:54;;;;;;;7.33;3.83;;;13.10;98.00;;;;;;5049835;28;20483;-61
2021/08/28 00:31:19;;;;;;;6.43;4.13;;;13.10;98.10;;;;;;5030722;28;20461;-58
2021/08/28 00:33:45;;;;;;;6.50;3.50;;;13.10;98.10;;;;;;5044844;28;20260;-59
2021/08/28 00:36:10;;;;;;;5.70;3.30;;;13.10;98.30;;;;;;5048211;28;20629;-60
2021/08/28 00:38:36;;;;;;;6.17;4.37;;;13.10;98.40;;;;;;5048221;28;20712;-61
2021/08/28 00:41:02;;;;;;;6.53;3.57;;;13.10;98.40;;;;;;5042852;28;20515;-61
2021/08/28 00:43:28;;;;;;;5.10;3.93;;;13.10;98.40;;;;;;5047492;28;20217;-62
2021/08/28 00:45:54;;;;;;;7.47;3.30;;;13.10;98.50;;;;;;5046085;28;20214;-61
2021/08/28 00:48:19;;;;;;;5.20;3.60;;;13.10;98.80;;;;;;5048072;28;20506;-61
2021/08/28 00:50:45;;;;;;;5.07;4.03;;;13.10;99.00;;;;;;5046761;28;20241;-60
2021/08/28 00:53:14;;;;;;;7.60;3.80;;;13.10;98.90;;;;;;5049097;28;20179;-61
2021/08/28 00:55:48;;;;;;;4.50;3.57;;;13.10;98.80;;;;;;5047982;28;20277;-61
2021/08/28 00:58:14;;;;;;;3.80;3.43;;;13.00;98.80;;;;;;5040055;28;20461;-61
2021/08/28 01:00:50;;;;;;;6.80;3.70;;;13.10;99.00;;;;;;5046239;28;20724;-61
2021/08/28 01:03:32;;;;;;;10.93;3.63;;;13.10;99.20;;;;;;5020314;28;20960;-62
2021/08/28 01:06:13;;;;;;;4.17;3.47;;;13.10;99.40;;;;;;5050275;28;20457;-60
2021/08/28 01:08:45;;;;;;;4.80;3.37;;;13.10;99.50;;;;;;5049391;28;20462;-61
2021/08/28 01:11:31;;;;;;;4.40;3.40;;;13.10;99.60;;;;;;5050740;28;20460;-61
2021/08/28 01:14:00;;;;;;;4.40;3.40;;;13.10;99.70;;;;;;5052007;28;20433;-61
2021/08/28 01:16:27;;;;;;;5.53;3.53;;;13.10;99.90;;;;;;5044505;28;20506;-60
2021/08/28 01:18:56;;;;;;;6.00;3.20;;;13.10;99.70;;;;;;5050672;28;20666;-61
2021/08/28 01:21:31;;;;;;;8.77;3.30;;;13.10;99.70;;;;;;5051634;28;20441;-60
2021/08/28 01:24:03;;;;;;;3.60;3.20;;;13.10;99.70;;;;;;5051469;28;20879;-61
2021/08/28 01:26:55;;;;;;;8.17;3.50;;;13.10;99.60;;;;;;5034421;28;20524;-60
2021/08/28 01:29:28;;;;;;;7.50;4.00;;;13.10;99.90;;;;;;5039349;28;20448;-60
2021/08/28 01:31:54;;;;;;;4.33;3.57;;;13.10;99.90;;;;;;5051848;28;20412;-61
2021/08/28 01:34:20;;;;;;;7.37;4.03;;;13.10;99.90;;;;;;5044475;28;20425;-61
2021/08/28 01:36:47;;;;;;;3.53;3.10;;;13.10;99.90;;;;;;5050465;28;20491;-60
2021/08/28 01:39:13;;;;;;;7.57;3.50;;;13.10;99.90;;;;;;5050902;28;20465;-60
2021/08/28 01:41:42;;;;;;;7.37;4.03;;;13.10;99.90;;;;;;5050925;28;20908;-59
2021/08/28 01:44:10;;;;;;;6.20;3.70;;;13.10;99.90;;;;;;5049292;28;20524;-61
2021/08/28 01:46:41;;;;;;;6.30;3.87;;;13.10;99.90;;;;;;5051099;28;20453;-61
2021/08/28 01:49:12;;;;;;;5.20;3.60;;;13.10;99.90;;;;;;5036123;28;20441;-61
2021/08/28 01:51:38;;;;;;;9.70;4.03;;;13.10;99.90;;;;;;5051108;28;20890;-61
2021/08/28 01:54:04;;;;;;;4.43;3.93;;;13.10;99.90;;;;;;5044468;28;20423;-58
2021/08/28 01:56:31;;;;;;;6.97;4.73;;;13.10;99.90;;;;;;5028085;28;20999;-59
2021/08/28 01:58:57;;;;;;;6.00;3.87;;;13.10;99.90;;;;;;5046121;28;20198;-59
2021/08/28 02:01:24;;;;;;;4.73;3.30;;;13.10;99.90;;;;;;5041486;28;20426;-59
2021/08/28 02:03:49;;;;;;;7.27;3.50;;;13.00;99.90;;;;;;5049123;28;20429;-59
2021/08/28 02:06:35;;;;;;;3.80;3.20;;;13.00;99.90;;;;;;5041495;28;20453;-62
2021/08/28 02:09:06;;;;;;;6.07;3.87;;;13.00;99.90;;;;;;5031344;28;20183;-60
2021/08/28 02:11:40;;;;;;;4.53;3.50;;;13.00;99.90;;;;;;5053415;28;20417;-61
2021/08/28 02:14:11;;;;;;;5.40;3.53;;;13.00;99.90;;;;;;5050080;28;20417;-62
2021/08/28 02:16:41;;;;;;;5.80;3.80;;;13.00;99.90;;;;;;5044158;28;20515;-59
2021/08/28 02:19:17;;;;;;;4.97;3.30;;;13.00;99.90;;;;;;5049977;28;20584;-60
2021/08/28 02:21:46;;;;;;;15.37;3.43;;;13.00;99.90;;;;;;5049578;28;20433;-60
2021/08/28 02:24:18;;;;;;;6.80;3.27;;;13.00;99.90;;;;;;5046331;28;20435;-62
2021/08/28 02:26:55;;;;;;;4.37;3.07;;;13.00;99.90;;;;;;5037371;28;21051;-61
2021/08/28 02:29:35;;;;;;;4.10;3.50;;;13.00;99.90;;;;;;5049395;28;20457;-61
2021/08/28 02:32:02;;;;;;;7.00;3.40;;;13.00;99.90;;;;;;5031596;28;20409;-60
2021/08/28 02:34:32;;;;;;;4.50;3.57;;;13.00;99.90;;;;;;5043967;28;20436;-60
2021/08/28 02:36:59;;;;;;;6.70;3.80;;;13.00;99.90;;;;;;5051377;28;20944;-61
2021/08/28 02:39:27;;;;;;;4.10;3.10;;;13.00;99.90;;;;;;5044997;28;20433;-60
2021/08/28 02:41:53;;;;;;;3.93;3.50;;;13.00;99.90;;;;;;5024847;28;20416;-61
2021/08/28 02:44:20;;;;;;;5.40;3.70;;;13.00;99.90;;;;;;5050362;28;20430;-61
2021/08/28 02:46:46;;;;;;;4.33;3.70;;;13.00;99.90;;;;;;5041116;28;20473;-61
2021/08/28 02:49:14;;;;;;;6.43;3.50;;;12.90;99.90;;;;;;5050010;28;20875;-60
2021/08/28 02:51:41;;;;;;;4.33;3.40;;;12.90;99.90;;;;;;5049619;28;20945;-60
2021/08/28 02:54:11;;;;;;;8.60;3.63;;;13.00;99.90;;;;;;5026580;28;20433;-60
2021/08/28 02:56:39;;;;;;;6.50;4.20;;;12.90;99.90;;;;;;5049731;28;20456;-61
2021/08/28 02:59:05;;;;;;;8.30;3.83;;;12.90;99.90;;;;;;5050123;28;20723;-61
2021/08/28 03:01:32;;;;;;;4.63;3.47;;;12.90;99.90;;;;;;5045561;28;20495;-61
2021/08/28 03:03:59;;;;;;;9.47;5.33;;;12.90;99.90;;;;;;5048833;28;20671;-60
2021/08/28 03:06:27;;;;;;;9.60;3.10;;;12.90;99.90;;;;;;5049852;28;20518;-59
2021/08/28 03:08:55;;;;;;;5.10;3.30;;;12.90;99.90;;;;;;5040482;28;20426;-58
2021/08/28 03:11:20;;;;;;;5.93;3.43;;;12.90;99.90;;;;;;5038585;28;20902;-58
2021/08/28 03:13:46;;;;;;;7.87;3.80;;;12.90;99.90;;;;;;5048092;28;20471;-59
2021/08/28 03:16:13;;;;;;;4.00;3.27;;;12.90;99.90;;;;;;5046988;28;20783;-58
2021/08/28 03:18:42;;;;;;;8.23;3.90;;;12.90;99.90;;;;;;5035081;28;20586;-59
2021/08/28 03:21:09;;;;;;;5.67;3.83;;;12.90;99.90;;;;;;5049494;28;20406;-58
2021/08/28 03:23:35;;;;;;;4.50;3.77;;;12.90;99.90;;;;;;5048141;28;20438;-59
2021/08/28 03:26:01;;;;;;;4.97;3.53;;;12.90;99.90;;;;;;5030829;28;20504;-59
2021/08/28 03:28:28;;;;;;;6.17;3.67;;;12.90;99.90;;;;;;5044639;28;20937;-59
2021/08/28 03:30:54;;;;;;;5.97;3.53;;;12.90;99.90;;;;;;5054375;28;20590;-61
2021/08/28 03:33:20;;;;;;;9.80;3.50;;;12.90;99.90;;;;;;5039830;28;20836;-59
2021/08/28 03:35:48;;;;;;;4.03;3.63;;;12.90;99.90;;;;;;5047307;28;21011;-59
2021/08/28 03:38:15;;;;;;;4.30;3.90;;;12.90;99.90;;;;;;5021207;28;20457;-60
2021/08/28 03:40:41;;;;;;;5.27;4.07;;;12.80;99.90;;;;;;5044231;28;20418;-58
2021/08/28 03:43:09;;;;;;;5.47;3.53;;;12.90;99.90;;;;;;5049313;28;20787;-61
2021/08/28 03:45:35;;;;;;;4.60;3.40;;;12.90;99.90;;;;;;5040251;28;20447;-60
2021/08/28 03:48:01;;;;;;;5.33;3.50;;;12.80;99.90;;;;;;5036707;28;20490;-61
2021/08/28 03:50:27;;;;;;;8.40;4.00;;;12.80;99.90;;;;;;5049463;28;20198;-60
2021/08/28 03:52:52;;;;;;;7.70;3.90;;;12.80;99.90;;;;;;5047286;28;20445;-61
2021/08/28 03:55:18;;;;;;;5.87;4.30;;;12.80;99.90;;;;;;5044416;28;20418;-61
2021/08/28 03:57:44;;;;;;;7.33;4.13;;;12.80;99.90;;;;;;5031848;28;20199;-62
2021/08/28 04:00:10;;;;;;;6.43;5.03;;;12.80;99.90;;;;;;5045639;28;20178;-61
2021/08/28 04:02:36;;;;;;;4.57;4.17;;;12.80;99.90;;;;;;5031598;28;20276;-62
2021/08/28 04:05:02;;;;;;;3.40;3.10;;;12.80;99.90;;;;;;5047753;28;20484;-60
2021/08/28 04:07:27;;;;;;;4.70;3.40;;;12.80;99.90;;;;;;5042547;28;20293;-61
2021/08/28 04:09:53;;;;;;;5.20;3.63;;;12.80;99.90;;;;;;5045692;28;20691;-61
2021/08/28 04:12:19;;;;;;;3.90;3.60;;;12.80;99.90;;;;;;5043093;28;20179;-61
2021/08/28 04:14:44;;;;;;;5.53;4.00;;;12.80;99.90;;;;;;5048774;28;20279;-61
2021/08/28 04:17:10;;;;;;;9.17;4.03;;;12.80;99.90;;;;;;5047674;28;20595;-61
2021/08/28 04:19:36;;;;;;;4.73;4.30;;;12.80;99.90;;;;;;5044088;28;20179;-61
2021/08/28 04:22:01;;;;;;;6.83;4.30;;;12.80;99.90;;;;;;5048808;28;20179;-61
2021/08/28 04:24:27;;;;;;;7.23;3.97;;;12.80;99.90;;;;;;5049409;28;20167;-60
2021/08/28 04:26:52;;;;;;;5.20;4.23;;;12.80;99.90;;;;;;5051065;28;20191;-60
2021/08/28 04:29:18;;;;;;;6.40;4.83;;;12.80;99.90;;;;;;5045167;28;20198;-60
2021/08/28 04:31:44;;;;;;;5.60;4.20;;;12.80;99.90;;;;;;5048245;28;20190;-61
2021/08/28 04:34:09;;;;;;;7.80;4.47;;;12.70;99.90;;;;;;5053553;28;20178;-62
2021/08/28 04:36:35;;;;;;;5.77;4.00;;;12.70;99.90;;;;;;5052271;28;20210;-59
2021/08/28 04:39:01;;;;;;;4.63;4.00;;;12.70;99.90;;;;;;5050453;28;20683;-59
2021/08/28 04:41:27;;;;;;;8.60;4.80;;;12.70;99.90;;;;;;5035613;28;20174;-59
2021/08/28 04:43:53;;;;;;;4.50;3.50;;;12.70;99.90;;;;;;5055342;28;20177;-58
2021/08/28 04:46:19;;;;;;;4.33;3.93;;;12.70;99.90;;;;;;5048875;28;20445;-58
2021/08/28 04:48:46;;;;;;;5.20;4.20;;;12.80;99.90;;;;;;5053212;28;20440;-63
2021/08/28 04:51:11;;;;;;;4.97;4.20;;;12.80;99.90;;;;;;5055559;28;20633;-58
2021/08/28 04:53:37;;;;;;;3.83;3.43;;;12.70;99.90;;;;;;5054769;28;20465;-59
2021/08/28 04:56:04;;;;;;;9.07;4.00;;;12.80;99.90;;;;;;5051293;28;20209;-59
2021/08/28 04:58:30;;;;;;;4.73;3.97;;;12.70;99.90;;;;;;5055496;28;20217;-60
2021/08/28 05:00:55;;;;;;;3.93;3.53;;;12.70;99.90;;;;;;5054329;28;20441;-59
2021/08/28 05:03:22;;;;;;;5.80;3.83;;;12.70;99.90;;;;;;5051080;28;20233;-59
2021/08/28 05:05:48;;;;;;;5.63;4.23;;;12.70;99.90;;;;;;5052142;28;20195;-60
2021/08/28 05:08:14;;;;;;;8.37;4.03;;;12.70;99.90;;;;;;5053088;28;20889;-61
2021/08/28 05:10:39;;;;;;;4.80;3.93;;;12.70;99.90;;;;;;5045167;28;20237;-61
2021/08/28 05:13:05;;;;;;;4.27;3.80;;;12.70;99.90;;;;;;5027258;28;20187;-59
2021/08/28 05:15:31;;;;;;;6.63;4.20;;;12.70;99.90;;;;;;5046406;28;20531;-59
2021/08/28 05:17:57;;;;;;;9.40;4.10;;;12.70;99.90;;;;;;5054773;28;20768;-59
2021/08/28 05:20:23;;;;;;;6.53;4.20;;;12.70;99.90;;;;;;5051076;28;20430;-59
2021/08/28 05:22:49;;;;;;;6.13;4.00;;;12.70;99.90;;;;;;5035842;28;20251;-59
2021/08/28 05:25:15;;;;;;;6.10;4.10;;;12.70;99.90;;;;;;5050082;28;20889;-59
2021/08/28 05:27:40;;;;;;;6.83;4.00;;;12.80;99.90;;;;;;5053485;28;20183;-60
2021/08/28 05:30:06;;;;;;;4.27;3.70;;;12.80;99.90;;;;;;5038712;28;20191;-60
2021/08/28 05:32:32;;;;;;;3.80;3.37;;;12.80;99.90;;;;;;5054917;28;20175;-59
2021/08/28 05:34:58;;;;;;;7.00;4.47;;;12.70;99.90;;;;;;5051078;28;20433;-59
2021/08/28 05:37:23;;;;;;;6.17;3.90;;;12.80;99.90;;;;;;5052943;28;20241;-59
2021/08/28 05:39:49;;;;;;;6.47;3.93;;;12.80;99.90;;;;;;5053483;28;20163;-59
2021/08/28 05:42:14;;;;;;;10.77;3.60;;;12.80;99.90;;;;;;5053440;28;20609;-59
2021/08/28 05:44:40;;;;;;;5.70;3.50;;;12.90;99.90;;;;;;5049127;28;20175;-59
2021/08/28 05:47:08;;;;;;;6.60;4.17;;;12.90;99.90;;;;;;5035475;28;20203;-59
2021/08/28 05:49:34;;;;;;;5.33;3.80;;;13.00;99.90;;;;;;5051073;28;20175;-59
2021/08/28 05:51:59;;;;;;;5.10;3.87;;;12.90;99.90;;;;;;5049956;28;20443;-59
2021/08/28 05:54:25;;;;;;;4.70;3.60;;;13.00;99.90;;;;;;5040983;28;20179;-59
2021/08/28 05:56:51;;;;;;;6.33;3.90;;;13.00;99.90;;;;;;5033603;28;20199;-59
2021/08/28 05:59:16;;;;;;;5.60;4.00;;;13.00;99.90;;;;;;5048177;28;20616;-59
2021/08/28 06:01:42;;;;;;;4.17;3.87;;;13.00;99.90;;;;;;5022913;28;20183;-59
2021/08/28 06:04:07;;;;;;;7.33;4.90;;;13.00;99.90;;;;;;5037793;28;20211;-59
2021/08/28 06:06:33;;;;;;;7.70;3.93;;;13.00;99.90;;;;;;5033107;28;20203;-59
2021/08/28 06:08:59;;;;;;;7.27;4.47;;;13.00;99.90;;;;;;5052364;28;20183;-59
2021/08/28 06:11:25;;;;;;;4.47;3.67;;;13.00;99.90;;;;;;5044709;28;20577;-59
2021/08/28 06:13:54;;;;;;;6.70;4.00;;;13.00;99.90;;;;;;5051253;28;20639;-59
2021/08/28 06:16:20;;;;;;;6.83;3.60;;;13.00;99.90;;;;;;5158437;22;20801;-59
2021/08/28 06:18:46;;;;;;;5.80;3.90;;;13.10;99.90;;;;;;5028384;28;20488;-59
2021/08/28 06:21:11;;;;;;;3.90;3.50;;;13.10;99.90;;;;;;5040174;28;20437;-58
2021/08/28 06:23:37;;;;;;;4.40;3.83;;;13.20;99.90;;;;;;5043937;28;20176;-59
2021/08/28 06:26:02;;;;;;;3.93;3.57;;;13.20;99.90;;;;;;5053364;28;20179;-59
2021/08/28 06:28:28;;;;;;;6.30;4.20;;;13.20;99.90;;;;;;5042809;28;20233;-59
2021/08/28 06:30:54;;;;;;;3.90;3.20;;;13.30;99.90;;;;;;5049370;28;20550;-58
2021/08/28 06:33:20;;;;;;;4.20;3.80;;;13.30;99.90;;;;;;5046375;28;20199;-61
2021/08/28 06:35:46;;;;;;;6.43;3.93;;;13.30;99.90;;;;;;5020899;28;20471;-62
2021/08/28 06:38:11;;;;;;;3.90;3.60;;;13.30;99.90;;;;;;5046144;28;20737;-59
2021/08/28 06:40:37;;;;;;;5.63;4.07;;;13.30;99.90;;;;;;5033030;28;20281;-61
2021/08/28 06:43:02;;;;;;;4.30;3.67;;;13.30;99.70;;;;;;5048953;28;20938;-58
2021/08/28 06:45:28;;;;;;;6.40;3.97;;;13.30;99.70;;;;;;5047255;28;20254;-58
2021/08/28 06:47:54;;;;;;;6.83;4.07;;;13.30;99.60;;;;;;5048089;28;20256;-61
2021/08/28 06:50:19;;;;;;;4.00;3.10;;;13.30;99.40;;;;;;5048385;28;20254;-60
2021/08/28 06:52:45;;;;;;;4.17;3.07;;;13.30;99.60;;;;;;5048827;28;20175;-59
2021/08/28 06:55:11;;;;;;;7.37;3.33;;;13.40;99.60;;;;;;5043189;28;20191;-59
2021/08/28 06:57:36;;;;;;;7.17;3.13;;;13.40;99.50;;;;;;5031566;28;20202;-58
2021/08/28 07:00:03;;;;;;;6.60;3.20;;;13.50;99.80;;;;;;5048258;28;20174;-62
2021/08/28 07:02:29;;;;;;;4.23;3.30;;;13.60;99.40;;;;;;5047358;28;20171;-58
2021/08/28 07:04:55;;;;;;;8.83;3.50;;;13.70;99.30;;;;;;5046896;28;20929;-61
2021/08/28 07:07:20;;;;;;;4.50;3.27;;;13.70;99.20;;;;;;5045943;28;20203;-57
2021/08/28 07:09:46;;;;;;;7.40;4.27;;;13.70;99.00;;;;;;5050157;28;20178;-61
2021/08/28 07:12:12;;;;;;;3.97;3.57;;;13.70;99.80;;;;;;5042584;28;20172;-59
2021/08/28 07:14:41;;;;;;;7.07;3.70;;;13.70;99.90;;;;;;5047232;28;20175;-60
2021/08/28 07:17:07;;;;;;;3.70;3.40;;;13.70;99.90;;;;;;5047541;28;20732;-59
2021/08/28 07:19:33;;;;;;;6.27;3.20;;;13.70;99.90;;;;;;5047496;28;20464;-59
2021/08/28 07:21:58;;;;;;;4.60;3.70;;;13.60;99.90;;;;;;5047053;28;20433;-59
2021/08/28 07:24:24;;;;;;;6.83;4.67;;;13.50;99.90;;;;;;5048481;28;20381;-59
2021/08/28 07:26:50;;;;;;;6.37;3.90;;;13.50;99.90;;;;;;5032219;28;20195;-60
2021/08/28 07:29:15;;;;;;;4.50;3.27;;;13.50;99.90;;;;;;5048022;28;20194;-58
2021/08/28 07:31:41;;;;;;;7.03;3.50;;;13.50;99.90;;;;;;5049077;28;20618;-60
2021/08/28 07:34:07;;;;;;;6.90;3.87;;;13.60;99.90;;;;;;5049683;28;20623;-60
2021/08/28 07:36:32;;;;;;;4.83;3.73;;;13.50;99.90;;;;;;5029814;28;20241;-61
2021/08/28 07:38:58;;;;;;;4.07;3.57;;;13.50;99.90;;;;;;5048954;28;20190;-62
2021/08/28 07:41:24;;;;;;;7.53;3.73;;;13.50;99.90;;;;;;5053237;28;20569;-62
2021/08/28 07:43:50;;;;;;;7.50;3.57;;;13.50;99.90;;;;;;5045614;28;20430;-61
2021/08/28 07:46:16;;;;;;;3.97;3.07;;;13.40;99.90;;;;;;5031253;28;20730;-61
2021/08/28 07:48:42;;;;;;;6.43;3.67;;;13.30;99.90;;;;;;5044939;28;20175;-60
2021/08/28 07:51:08;;;;;;;8.60;4.10;;;13.30;99.90;;;;;;5047528;28;20460;-61
2021/08/28 07:53:33;;;;;;;4.93;3.70;;;13.30;99.90;;;;;;5049613;28;20221;-60
2021/08/28 07:55:59;;;;;;;4.60;3.83;;;13.30;99.90;;;;;;5044737;28;20226;-61
2021/08/28 07:58:25;;;;;;;4.13;3.63;;;13.30;99.90;;;;;;5029985;28;20202;-62
2021/08/28 08:00:51;;;;;;;5.77;3.87;;;13.30;99.90;;;;;;5049140;28;20182;-61
2021/08/28 08:03:17;;;;;;;10.83;4.03;;;13.40;99.90;;;;;;5047278;28;20827;-60
2021/08/28 08:05:42;;;;;;;6.07;4.13;;;13.50;99.90;;;;;;5047352;28;20601;-62
2021/08/28 08:08:08;;;;;;;4.40;3.90;;;13.50;99.90;;;;;;5045264;28;20581;-61
2021/08/28 08:10:34;;;;;;;4.57;3.83;;;13.60;99.90;;;;;;5047595;28;20285;-61
2021/08/28 08:13:00;;;;;;;5.90;4.33;;;13.60;99.90;;;;;;5031907;28;20547;-60
2021/08/28 08:15:27;;;;;;;5.23;4.70;;;13.50;99.90;;;;;;5048606;28;20187;-61
2021/08/28 08:17:53;;;;;;;6.67;4.57;;;13.60;99.90;;;;;;5045378;28;20587;-61
2021/08/28 08:20:19;;;;;;;5.20;4.53;;;13.50;99.90;;;;;;5047773;28;20960;-62
2021/08/28 08:22:45;;;;;;;4.37;3.97;;;13.50;99.90;;;;;;5046280;28;20472;-61
2021/08/28 08:25:11;;;;;;;5.70;4.27;;;13.50;99.90;;;;;;5044954;28;20176;-59
2021/08/28 08:27:37;;;;;;;3.93;3.57;;;13.50;99.90;;;;;;5044639;28;20200;-59
2021/08/28 08:30:04;;;;;;;5.13;4.10;;;13.40;99.90;;;;;;5048181;28;20422;-62
2021/08/28 08:32:30;;;;;;;4.03;3.57;;;13.40;99.90;;;;;;5047172;28;20809;-59
2021/08/28 08:34:56;;;;;;;3.90;3.47;;;13.40;99.90;;;;;;5043745;28;20422;-61
2021/08/28 08:37:22;;;;;;;5.93;4.30;;;13.30;99.90;;;;;;5044474;28;20449;-60
2021/08/28 08:39:47;;;;;;;3.90;3.50;;;13.30;99.90;;;;;;5037488;28;20171;-60
2021/08/28 08:42:16;;;;;;;4.63;4.10;;;13.30;99.90;;;;;;5028514;28;20288;-60
2021/08/28 08:44:44;;;;;;;7.90;4.80;;;13.30;99.90;;;;;;5046427;28;20167;-58
2021/08/28 08:47:11;;;;;;;7.97;4.27;;;13.30;99.90;;;;;;5046370;28;20445;-61
2021/08/28 08:49:38;;;;;;;6.17;4.23;;;13.40;99.90;;;;;;5043090;28;20448;-60
2021/08/28 08:52:05;;;;;;;4.83;3.93;;;13.50;99.90;;;;;;5047564;28;20463;-56
2021/08/28 08:54:30;;;;;;;7.50;3.90;;;13.60;99.90;;;;;;5046871;28;20850;-56
2021/08/28 08:56:57;;;;;;;6.80;4.10;;;13.80;99.90;;;;;;5047156;28;20453;-56
2021/08/28 08:59:22;;;;;;;4.20;3.73;;;14.20;99.90;;;;;;5043058;28;20671;-57
2021/08/28 09:01:48;;;;;;;4.20;3.73;;;14.50;99.90;;;;;;5026759;28;20440;-57
2021/08/28 09:04:14;;;;;;;4.80;3.93;;;14.60;99.90;;;;;;5044372;28;20572;-57
2021/08/28 09:06:43;;;;;;;5.50;4.40;;;14.80;99.90;;;;;;5041433;28;20449;-56
2021/08/28 09:09:09;;;;;;;7.30;4.90;;;14.90;99.90;;;;;;5040551;28;20258;-57
2021/08/28 09:11:34;;;;;;;6.37;4.63;;;14.90;99.90;;;;;;5029205;28;20498;-56
2021/08/28 09:14:20;;;;;;;7.27;4.60;;;14.80;99.90;;;;;;5048623;28;20168;-56
2021/08/28 09:16:47;;;;;;;5.03;4.53;;;14.70;99.90;;;;;;5040670;28;20732;-55
2021/08/28 09:19:13;;;;;;;5.00;3.40;;;14.60;99.90;;;;;;5050405;28;20453;-56
2021/08/28 09:21:39;;;;;;;9.20;4.00;;;14.50;99.90;;;;;;5052592;28;20777;-56
2021/08/28 09:24:08;;;;;;;5.30;3.43;;;14.40;99.90;;;;;;5046828;28;20604;-56
2021/08/28 09:26:44;;;;;;;5.40;3.87;;;14.30;99.90;;;;;;5033545;28;20203;-56
2021/08/28 09:29:13;;;;;;;8.57;4.40;;;14.20;99.90;;;;;;5043186;28;20799;-58
2021/08/28 09:31:56;;;;;;;5.43;4.00;;;14.20;99.90;;;;;;5050425;28;21286;-56
2021/08/28 09:34:24;;;;;;;4.10;3.70;;;14.10;99.90;;;;;;5050235;28;20432;-58
2021/08/28 09:36:58;;;;;;;4.27;3.37;;;14.10;99.90;;;;;;5051402;28;20847;-55
2021/08/28 09:39:40;;;;;;;3.70;3.30;;;14.00;99.90;;;;;;5050460;28;20457;-57
2021/08/28 09:42:07;;;;;;;4.13;2.97;;;13.90;99.90;;;;;;5044343;28;20458;-56
2021/08/28 09:44:41;;;;;;;6.13;3.40;;;13.80;99.90;;;;;;5052290;28;20938;-55
2021/08/28 09:47:18;;;;;;;3.63;3.30;;;13.80;99.90;;;;;;5052145;28;20448;-58
2021/08/28 09:49:47;;;;;;;5.43;1.70;;;13.70;99.90;;;;;;5037526;28;20792;-56
2021/08/28 09:52:15;;;;;;;3.17;1.90;;;13.60;99.90;;;;;;5070395;28;20421;-56
2021/08/28 09:54:41;;;;;;;2.13;1.93;;;13.50;99.90;;;;;;5054222;28;20414;-55
2021/08/28 09:57:07;;;;;;;4.40;2.10;;;13.50;99.90;;;;;;5051883;28;20445;-57
2021/08/28 09:59:33;;;;;;;3.13;2.83;;;13.40;99.90;;;;;;5049852;28;20976;-56
2021/08/28 10:02:04;;;;;;;3.37;2.43;;;13.50;99.90;;;;;;5052113;28;20409;-56
2021/08/28 10:04:29;;;;;;;2.90;2.60;;;13.60;99.90;;;;;;5054890;28;20160;-54
2021/08/28 10:06:57;;;;;;;4.00;2.50;;;13.60;99.90;;;;;;5049694;28;20448;-56
2021/08/28 10:09:23;;;;;;;3.93;2.63;;;13.80;99.90;;;;;;5051518;28;20214;-57
2021/08/28 10:11:50;;;;;;;2.77;2.57;;;13.90;99.90;;;;;;5053153;28;20586;-56
2021/08/28 10:14:18;;;;;;;4.90;2.80;;;14.20;99.90;;;;;;5032904;28;20186;-55
2021/08/28 10:16:46;;;;;;;3.63;3.10;;;14.50;99.90;;;;;;5047902;28;20969;-57
2021/08/28 10:19:16;;;;;;;3.40;2.60;;;14.90;99.90;;;;;;5050805;28;20457;-56
2021/08/28 10:21:47;;;;;;;2.80;2.60;;;15.10;99.90;;;;;;5051350;28;20429;-57
2021/08/28 10:24:14;;;;;;;3.10;2.17;;;15.30;99.90;;;;;;5045368;28;20496;-58
2021/08/28 10:26:42;;;;;;;3.63;2.73;;;15.30;99.90;;;;;;5051475;28;20449;-57
2021/08/28 10:29:09;;;;;;;3.40;3.10;;;15.30;99.90;;;;;;5051370;28;20422;-57
2021/08/28 10:31:35;;;;;;;3.37;3.07;;;15.30;99.90;;;;;;5051595;28;20422;-56
2021/08/28 10:34:01;;;;;;;6.13;4.00;;;15.30;99.90;;;;;;5036169;28;20468;-59
2021/08/28 10:36:27;;;;;;;3.67;3.37;;;15.30;99.90;;;;;;5042276;28;20441;-57
2021/08/28 10:38:55;;;;;;;8.30;4.13;;;15.20;99.90;;;;;;5050890;28;20510;-56
2021/08/28 10:41:21;;;;;;;7.53;3.87;;;15.20;99.90;;;;;;5047791;28;20175;-55
2021/08/28 10:43:48;;;;;;;3.70;3.40;;;15.10;99.90;;;;;;5051471;28;20397;-56
2021/08/28 10:46:21;;;;;;;5.50;4.57;;;15.10;99.90;;;;;;5051100;28;21036;-57
2021/08/28 10:49:00;;;;;;;4.57;3.73;;;15.00;99.90;;;;;;5051277;28;20485;-54
2021/08/28 10:51:31;;;;;;;3.70;3.00;;;14.90;99.90;;;;;;5033652;28;20520;-57
2021/08/28 10:54:02;;;;;;;3.40;2.60;;;14.70;99.90;;;;;;5032407;28;20924;-57
2021/08/28 10:56:56;;;;;;;3.80;3.30;;;14.50;99.90;;;;;;5050841;28;20448;-58
2021/08/28 10:59:28;;;;;;;3.97;3.50;;;14.40;99.90;;;;;;5030583;28;20505;-55
2021/08/28 11:02:13;;;;;;;4.47;3.40;;;14.30;99.90;;;;;;5031478;28;20699;-56
2021/08/28 11:04:42;;;;;;;3.43;3.13;;;14.20;99.90;;;;;;5043689;28;20422;-56
2021/08/28 11:07:41;;;;;;;5.30;3.10;;;14.20;99.90;;;;;;5050523;28;20433;-57
2021/08/28 11:10:11;;;;;;;3.27;2.93;;;14.30;99.90;;;;;;5030741;28;20414;-56
2021/08/28 11:12:56;;;;;;;3.50;3.10;;;14.30;99.90;;;;;;5030581;28;20422;-56
2021/08/28 11:15:24;;;;;;;3.30;2.40;;;14.40;99.90;;;;;;5047103;28;20421;-56
2021/08/28 11:17:55;;;;;;;3.03;2.80;;;14.50;99.90;;;;;;5048034;28;20468;-55
2021/08/28 11:20:48;;;;;;;2.60;2.40;;;14.60;99.90;;;;;;5050627;28;20405;-59
2021/08/28 11:23:21;;;;;;;3.50;3.20;;;14.80;99.90;;;;;;5040717;28;20413;-56
2021/08/28 11:25:57;;;;;;;6.10;4.10;;;14.90;99.90;;;;;;5047051;28;20437;-58
2021/08/28 11:28:35;;;;;;;3.57;3.07;;;15.20;99.90;;;;;;5051901;28;20432;-57
2021/08/28 11:31:01;;;;;;;4.70;3.40;;;15.50;99.90;;;;;;5050244;28;20429;-56
2021/08/28 11:33:29;;;;;;;3.73;3.20;;;15.70;99.90;;;;;;5050301;28;20429;-58
2021/08/28 11:35:59;;;;;;;4.00;3.60;;;15.80;99.90;;;;;;5045395;28;20726;-57
2021/08/28 11:38:56;;;;;;;4.20;3.80;;;16.00;99.90;;;;;;5049572;28;20580;-56
2021/08/28 11:41:26;;;;;;;4.00;3.40;;;16.10;99.90;;;;;;5048669;28;20957;-56
2021/08/28 11:43:54;;;;;;;4.00;3.60;;;16.40;98.90;;;;;;5047317;28;20459;-57
2021/08/28 11:46:29;;;;;;;5.07;3.70;;;16.80;99.90;;;;;;5030441;28;20437;-56
2021/08/28 11:48:56;;;;;;;3.53;3.00;;;17.30;99.90;;;;;;5047858;28;20468;-57
2021/08/28 11:51:26;;;;;;;5.00;3.70;;;17.60;95.40;;;;;;5049469;28;20750;-56
2021/08/28 11:53:54;;;;;;;4.00;3.20;;;17.80;94.60;;;;;;5038187;28;20861;-57
2021/08/28 11:56:22;;;;;;;4.53;3.60;;;17.90;93.80;;;;;;5049963;28;20421;-56
2021/08/28 11:59:03;;;;;;;3.80;3.13;;;17.90;90.50;;;;;;5048696;28;20500;-56
2021/08/28 12:01:31;;;;;;;4.50;3.20;;;17.60;90.00;;;;;;5045310;28;21201;-57
2021/08/28 12:04:00;;;;;;;4.00;3.60;;;17.30;87.70;;;;;;5054947;28;20413;-57
2021/08/28 12:06:27;;;;;;;10.80;3.57;;;16.90;89.70;;;;;;5049618;28;20434;-57
2021/08/28 12:08:54;;;;;;;3.30;3.00;;;16.60;90.50;;;;;;5049052;28;20936;-57
2021/08/28 12:11:21;;;;;;;3.43;3.13;;;16.20;93.60;;;;;;5039664;28;20432;-57
2021/08/28 12:13:49;;;;;;;3.80;3.40;;;15.90;95.50;;;;;;5049145;28;20990;-59
2021/08/28 12:16:35;;;;;;;4.70;3.70;;;15.60;97.70;;;;;;5049582;28;20734;-57
2021/08/28 12:19:10;;;;;;;3.90;3.03;;;15.50;99.60;;;;;;5046264;28;20467;-57
2021/08/28 12:21:47;;;;;;;4.70;3.30;;;15.40;99.90;;;;;;5054175;28;20456;-58
2021/08/28 12:24:31;;;;;;;3.50;3.20;;;15.30;99.90;;;;;;5043352;28;20591;-57
2021/08/28 12:27:02;;;;;;;7.23;4.10;;;15.20;99.90;;;;;;5036308;28;20445;-57
2021/08/28 12:29:30;;;;;;;6.37;3.97;;;15.10;99.90;;;;;;5049091;28;20429;-57
2021/08/28 12:32:08;;;;;;;5.07;3.23;;;14.90;99.90;;;;;;5049239;28;20803;-56
2021/08/28 12:34:36;;;;;;;4.10;3.50;;;14.70;99.90;;;;;;5049770;28;20440;-56
2021/08/28 12:37:04;;;;;;;3.00;2.80;;;14.50;99.90;;;;;;5033080;28;20477;-54
2021/08/28 12:39:31;;;;;;;2.63;2.43;;;14.40;99.90;;;;;;5042441;28;20461;-57
2021/08/28 12:41:58;;;;;;;5.00;3.60;;;14.30;99.90;;;;;;5049065;28;20440;-57
2021/08/28 12:44:25;;;;;;;3.97;3.27;;;14.30;99.90;;;;;;5045838;28;20437;-57
2021/08/28 12:46:52;;;;;;;3.13;2.83;;;14.20;99.90;;;;;;5049337;28;20441;-57
2021/08/28 12:49:23;;;;;;;3.00;2.70;;;14.20;99.90;;;;;;5048470;28;21018;-57
2021/08/28 12:52:00;;;;;;;3.93;3.37;;;14.30;99.90;;;;;;5049203;28;20430;-55